Danubia — A8HZ9 — position and weather

sailwx.info

Track history (hours):
 
Tides and Currents Weather Stations Pressure Air Temp Water Temp Dewpoint Dewpoint Depression Visibility Wind Speed Wind Dir Waves Ship Positions

Danubia

Last reported at 2018-Jan-28 15:43 UTC. Time now 2018-Feb-24 00:26 UTC.
Position N 32°06' W 118°26'.
Warning: this ship's position is 26 days out of date.

Length 229 m; draft 7.5 m.

Type: Tanker. MMSI: 636090950.

Date/timePositionNaut miles runAvg speedWind from/ knotsBaromVisibWave heightAir tempDewpointWater temp
2018-Jan-28 15:43N 32°06' W 118°26'312.3
2018-Jan-28 15:30N 32°09' W 118°26'612.3
2018-Jan-28 14:59N 32°15' W 118°26'611.9
2018-Jan-28 14:30N 32°21' W 118°26'2311.1
2018-Jan-28 12:28N 32°41' W 118°16'612.3
2018-Jan-28 12:00N 32°47' W 118°13'612.3
2018-Jan-28 11:30N 32°53' W 118°12'612.3
2018-Jan-28 10:59N 32°59' W 118°10'612.3
2018-Jan-28 10:30N 33°05' W 118°09'612.5
2018-Jan-28 10:00N 33°11' W 118°08'712.5
2018-Jan-28 09:29N 33°17' W 118°07'1012.6
2018-Jan-28 08:42N 33°27' W 118°10'313.1
2018-Jan-28 08:30N 33°29' W 118°11'612.4
2018-Jan-28 07:59N 33°35' W 118°14'1911.5
2018-Jan-28 06:19N 33°43' W 118°35'411.3
2018-Jan-28 06:00N 33°46' W 118°33'9 0.3
2018-Jan-26 18:11N 33°54' W 118°27'0 0.0
2018-Jan-26 18:01N 33°54' W 118°27'0 0.0
2018-Jan-26 17:30N 33°54' W 118°27'0 0.4
2018-Jan-26 16:51N 33°54' W 118°27'2 2.0
2018-Jan-26 15:54N 33°54' W 118°30'0 0.0
2018-Jan-26 04:45N 33°54' W 118°29'1 2.3
2018-Jan-26 04:21N 33°53' W 118°30'1 3.8
2018-Jan-26 04:01N 33°52' W 118°30'3 6.9
2018-Jan-26 03:31N 33°49' W 118°31'3 6.4
2018-Jan-26 03:00N 33°46' W 118°32'2 3.4
2018-Jan-26 02:31N 33°44' W 118°32'2 3.9
2018-Jan-26 02:00N 33°43' W 118°30'2 4.5
2018-Jan-26 01:31N 33°42' W 118°28'2 4.8
2018-Jan-26 01:00N 33°40' W 118°25'2 4.8
2018-Jan-26 00:30N 33°39' W 118°23'2 4.6
2018-Jan-26 00:00N 33°38' W 118°20'7 5.1
2018-Jan-25 22:43N 33°39' W 118°12'1 4.7
2018-Jan-25 22:30N 33°39' W 118°11'4 0.3
2018-Jan-25 11:21N 33°42' W 118°08'0 0.0
2018-Jan-25 09:54N 33°42' W 118°08'0 0.3
2018-Jan-25 09:30N 33°42' W 118°08'0 0.0
2018-Jan-25 09:00N 33°42' W 118°08'0 0.1
2018-Jan-25 08:30N 33°42' W 118°08'0 0.1
2018-Jan-25 08:00N 33°42' W 118°08'0 0.1
2018-Jan-25 07:30N 33°42' W 118°08'0 0.0
2018-Jan-25 07:00N 33°42' W 118°08'0 0.1
2018-Jan-25 06:30N 33°42' W 118°08'0 0.1
2018-Jan-25 05:48N 33°42' W 118°08'0 0.2
2018-Jan-25 05:30N 33°42' W 118°08'0 0.1
2018-Jan-25 04:12N 33°42' W 118°08'0 0.0
2018-Jan-25 00:54N 33°42' W 118°08'0 0.0
2018-Jan-24 17:30N 33°42' W 118°08'0 0.0
2018-Jan-24 16:54N 33°42' W 118°08'0 0.0
2018-Jan-24 16:30N 33°42' W 118°08'0 0.0
2018-Jan-24 16:00N 33°42' W 118°08'0 0.0
2018-Jan-24 15:30N 33°42' W 118°08'0 0.1
2018-Jan-24 15:00N 33°42' W 118°08'0 0.0
2018-Jan-24 14:30N 33°42' W 118°08'0 0.1
2018-Jan-24 13:18N 33°42' W 118°08'0 0.1
2018-Jan-24 13:00N 33°42' W 118°08'0 0.1
2018-Jan-24 12:24N 33°42' W 118°08'0 0.0
2018-Jan-24 12:00N 33°42' W 118°08'0 0.0
2018-Jan-24 11:30N 33°42' W 118°08'0 0.0
2018-Jan-24 11:00N 33°42' W 118°08'0 0.0
2018-Jan-24 10:30N 33°42' W 118°08'0 0.1
2018-Jan-24 09:12N 33°42' W 118°08'0 0.0
2018-Jan-24 09:00N 33°42' W 118°08'0 0.0
2018-Jan-24 00:54N 33°42' W 118°08'0 0.0
2018-Jan-23 19:12N 33°42' W 118°08'0 0.1
2018-Jan-23 19:00N 33°42' W 118°08'0 0.1
2018-Jan-23 18:24N 33°42' W 118°08'0 0.1
2018-Jan-23 18:00N 33°42' W 118°08'0 0.0
2018-Jan-23 17:30N 33°42' W 118°08'0 0.0
2018-Jan-23 16:42N 33°42' W 118°08'0 0.0
2018-Jan-23 16:18N 33°42' W 118°08'0 0.0
2018-Jan-23 15:42N 33°42' W 118°08'0 0.1
2018-Jan-23 15:30N 33°42' W 118°08'0 0.0
2018-Jan-23 14:48N 33°42' W 118°08'0 0.0
2018-Jan-23 14:30N 33°42' W 118°08'0 0.0
2018-Jan-23 14:00N 33°42' W 118°08'0 0.0
2018-Jan-23 13:12N 33°42' W 118°08'0 0.0
2018-Jan-23 12:42N 33°42' W 118°08'0 0.0
2018-Jan-23 12:30N 33°42' W 118°08'0 0.0
2018-Jan-23 12:00N 33°42' W 118°08'0 0.0
2018-Jan-23 11:24N 33°42' W 118°08'0 0.1
2018-Jan-23 09:48N 33°42' W 118°08'0 0.0
2018-Jan-23 02:42N 33°42' W 118°08'0 0.0
2018-Jan-23 02:24N 33°42' W 118°08'0 0.0
2018-Jan-23 01:54N 33°42' W 118°08'0 0.0
2018-Jan-23 01:18N 33°42' W 118°08'0 0.0
2018-Jan-23 01:00N 33°42' W 118°08'0 0.0
2018-Jan-23 00:24N 33°42' W 118°08'0 0.0
2018-Jan-23 00:00N 33°42' W 118°08'0 0.0
2018-Jan-22 23:30N 33°42' W 118°08'0 0.0
2018-Jan-22 23:00N 33°42' W 118°08'0 0.1
2018-Jan-22 22:30N 33°42' W 118°08'0 0.0
2018-Jan-22 22:00N 33°42' W 118°08'0 0.0
2018-Jan-22 21:30N 33°42' W 118°08'0 0.1
2018-Jan-22 21:00N 33°42' W 118°08'0 0.0
2018-Jan-22 20:30N 33°42' W 118°08'0 0.0
2018-Jan-22 20:00N 33°42' W 118°08'0 0.0
2018-Jan-22 19:30N 33°42' W 118°08'0 0.0
2018-Jan-22 18:54N 33°42' W 118°08'0 0.0
2018-Jan-22 18:30N 33°42' W 118°08'0 0.0
2018-Jan-22 17:54N 33°42' W 118°08'0 0.1
2018-Jan-22 17:30N 33°42' W 118°08'0 0.0
2018-Jan-22 07:42N 33°42' W 118°08'0 0.0
2018-Jan-22 01:36N 33°42' W 118°08'0 0.0
2018-Jan-22 01:30N 33°42' W 118°08'0 0.0
2018-Jan-22 01:00N 33°42' W 118°08'0 0.0
2018-Jan-22 00:30N 33°42' W 118°08'0 0.0
2018-Jan-22 00:00N 33°42' W 118°08'0 0.0
2018-Jan-21 23:30N 33°42' W 118°08'0 0.1
2018-Jan-21 23:00N 33°42' W 118°08'0 0.1
2018-Jan-21 22:30N 33°42' W 118°08'  
2018-Jan-19 08:41N 33°42' W 118°08'0 0.0
2018-Jan-19 08:29N 33°42' W 118°08'0 0.0
2018-Jan-19 05:05N 33°42' W 118°08'0 0.0
2018-Jan-19 04:59N 33°42' W 118°08'0 0.0
2018-Jan-19 04:17N 33°42' W 118°08'0 0.1
2018-Jan-19 03:53N 33°42' W 118°08'0 0.1
2018-Jan-19 03:30N 33°42' W 118°08'0 0.0
2018-Jan-19 02:59N 33°42' W 118°08'0 0.1
2018-Jan-19 02:29N 33°42' W 118°08'0 0.2
2018-Jan-19 01:59N 33°42' W 118°08'0 0.2
2018-Jan-19 01:23N 33°42' W 118°08'0 0.1
2018-Jan-19 00:41N 33°42' W 118°08'0 0.3
2018-Jan-19 00:29N 33°42' W 118°08'1 2.7
2018-Jan-19 00:00N 33°41' W 118°09'4 7.2
2018-Jan-18 23:30N 33°37' W 118°09'510.4
2018-Jan-18 23:00N 33°32' W 118°08'611.4
2018-Jan-18 22:30N 33°27' W 118°06'611.4
2018-Jan-18 22:00N 33°21' W 118°03'611.6
2018-Jan-18 21:30N 33°16' W 118°04'611.8
2018-Jan-18 21:00N 33°10' W 118°06'612.1
2018-Jan-18 20:30N 33°04' W 118°08'612.1
2018-Jan-18 20:00N 32°58' W 118°09'612.4
2018-Jan-18 19:31N 32°52' W 118°11'612.4
2018-Jan-18 19:00N 32°46' W 118°13'612.4
2018-Jan-18 18:30N 32°40' W 118°15'611.7
2018-Jan-18 18:00N 32°37' W 118°21'611.4
2018-Jan-18 17:30N 32°34' W 118°26'611.9
2018-Jan-18 17:00N 32°28' W 118°26'611.5
2018-Jan-18 16:30N 32°22' W 118°26'3 6.4
2018-Jan-18 15:59N 32°19' W 118°26'  
Track history (hours):
 
Tides and Currents Weather Stations Pressure Air Temp Water Temp Dewpoint Dewpoint Depression Visibility Wind Speed Wind Dir Waves Ship Positions

Danubia

Last reported at 2018-Jan-28 15:43 UTC. Time now 2018-Feb-24 00:26 UTC.
Position N 32°06' W 118°26'.
Warning: this ship's position is 26 days out of date.

Length 229 m; draft 7.5 m.

Type: Tanker. MMSI: 636090950.

Date/timePositionNaut miles runAvg speedWind from/ knotsBaromVisibWave heightAir tempDewpointWater temp
2018-Jan-28 15:43N 32°06' W 118°26'312.3
2018-Jan-28 15:30N 32°09' W 118°26'612.3
2018-Jan-28 14:59N 32°15' W 118°26'611.9
2018-Jan-28 14:30N 32°21' W 118°26'2311.1
2018-Jan-28 12:28N 32°41' W 118°16'612.3
2018-Jan-28 12:00N 32°47' W 118°13'612.3
2018-Jan-28 11:30N 32°53' W 118°12'612.3
2018-Jan-28 10:59N 32°59' W 118°10'612.3
2018-Jan-28 10:30N 33°05' W 118°09'612.5
2018-Jan-28 10:00N 33°11' W 118°08'712.5
2018-Jan-28 09:29N 33°17' W 118°07'1012.6
2018-Jan-28 08:42N 33°27' W 118°10'313.1
2018-Jan-28 08:30N 33°29' W 118°11'612.4
2018-Jan-28 07:59N 33°35' W 118°14'1911.5
2018-Jan-28 06:19N 33°43' W 118°35'411.3
2018-Jan-28 06:00N 33°46' W 118°33'9 0.3
2018-Jan-26 18:11N 33°54' W 118°27'0 0.0
2018-Jan-26 18:01N 33°54' W 118°27'0 0.0
2018-Jan-26 17:30N 33°54' W 118°27'0 0.4
2018-Jan-26 16:51N 33°54' W 118°27'2 2.0
2018-Jan-26 15:54N 33°54' W 118°30'0 0.0
2018-Jan-26 04:45N 33°54' W 118°29'1 2.3
2018-Jan-26 04:21N 33°53' W 118°30'1 3.8
2018-Jan-26 04:01N 33°52' W 118°30'3 6.9
2018-Jan-26 03:31N 33°49' W 118°31'3 6.4
2018-Jan-26 03:00N 33°46' W 118°32'2 3.4
2018-Jan-26 02:31N 33°44' W 118°32'2 3.9
2018-Jan-26 02:00N 33°43' W 118°30'2 4.5
2018-Jan-26 01:31N 33°42' W 118°28'2 4.8
2018-Jan-26 01:00N 33°40' W 118°25'2 4.8
2018-Jan-26 00:30N 33°39' W 118°23'2 4.6
2018-Jan-26 00:00N 33°38' W 118°20'7 5.1
2018-Jan-25 22:43N 33°39' W 118°12'1 4.7
2018-Jan-25 22:30N 33°39' W 118°11'4 0.3
2018-Jan-25 11:21N 33°42' W 118°08'0 0.0
2018-Jan-25 09:54N 33°42' W 118°08'0 0.3
2018-Jan-25 09:30N 33°42' W 118°08'0 0.0
2018-Jan-25 09:00N 33°42' W 118°08'0 0.1
2018-Jan-25 08:30N 33°42' W 118°08'0 0.1
2018-Jan-25 08:00N 33°42' W 118°08'0 0.1
2018-Jan-25 07:30N 33°42' W 118°08'0 0.0
2018-Jan-25 07:00N 33°42' W 118°08'0 0.1
2018-Jan-25 06:30N 33°42' W 118°08'0 0.1
2018-Jan-25 05:48N 33°42' W 118°08'0 0.2
2018-Jan-25 05:30N 33°42' W 118°08'0 0.1
2018-Jan-25 04:12N 33°42' W 118°08'0 0.0
2018-Jan-25 00:54N 33°42' W 118°08'0 0.0
2018-Jan-24 17:30N 33°42' W 118°08'0 0.0
2018-Jan-24 16:54N 33°42' W 118°08'0 0.0
2018-Jan-24 16:30N 33°42' W 118°08'0 0.0
2018-Jan-24 16:00N 33°42' W 118°08'0 0.0
2018-Jan-24 15:30N 33°42' W 118°08'0 0.1
2018-Jan-24 15:00N 33°42' W 118°08'0 0.0
2018-Jan-24 14:30N 33°42' W 118°08'0 0.1
2018-Jan-24 13:18N 33°42' W 118°08'0 0.1
2018-Jan-24 13:00N 33°42' W 118°08'0 0.1
2018-Jan-24 12:24N 33°42' W 118°08'0 0.0
2018-Jan-24 12:00N 33°42' W 118°08'0 0.0
2018-Jan-24 11:30N 33°42' W 118°08'0 0.0
2018-Jan-24 11:00N 33°42' W 118°08'0 0.0
2018-Jan-24 10:30N 33°42' W 118°08'0 0.1
2018-Jan-24 09:12N 33°42' W 118°08'0 0.0
2018-Jan-24 09:00N 33°42' W 118°08'0 0.0
2018-Jan-24 00:54N 33°42' W 118°08'0 0.0
2018-Jan-23 19:12N 33°42' W 118°08'0 0.1
2018-Jan-23 19:00N 33°42' W 118°08'0 0.1
2018-Jan-23 18:24N 33°42' W 118°08'0 0.1
2018-Jan-23 18:00N 33°42' W 118°08'0 0.0
2018-Jan-23 17:30N 33°42' W 118°08'0 0.0
2018-Jan-23 16:42N 33°42' W 118°08'0 0.0
2018-Jan-23 16:18N 33°42' W 118°08'0 0.0
2018-Jan-23 15:42N 33°42' W 118°08'0 0.1
2018-Jan-23 15:30N 33°42' W 118°08'0 0.0
2018-Jan-23 14:48N 33°42' W 118°08'0 0.0
2018-Jan-23 14:30N 33°42' W 118°08'0 0.0
2018-Jan-23 14:00N 33°42' W 118°08'0 0.0
2018-Jan-23 13:12N 33°42' W 118°08'0 0.0
2018-Jan-23 12:42N 33°42' W 118°08'0 0.0
2018-Jan-23 12:30N 33°42' W 118°08'0 0.0
2018-Jan-23 12:00N 33°42' W 118°08'0 0.0
2018-Jan-23 11:24N 33°42' W 118°08'0 0.1
2018-Jan-23 09:48N 33°42' W 118°08'0 0.0
2018-Jan-23 02:42N 33°42' W 118°08'0 0.0
2018-Jan-23 02:24N 33°42' W 118°08'0 0.0
2018-Jan-23 01:54N 33°42' W 118°08'0 0.0
2018-Jan-23 01:18N 33°42' W 118°08'0 0.0
2018-Jan-23 01:00N 33°42' W 118°08'0 0.0
2018-Jan-23 00:24N 33°42' W 118°08'0 0.0
2018-Jan-23 00:00N 33°42' W 118°08'0 0.0
2018-Jan-22 23:30N 33°42' W 118°08'0 0.0
2018-Jan-22 23:00N 33°42' W 118°08'0 0.1
2018-Jan-22 22:30N 33°42' W 118°08'0 0.0
2018-Jan-22 22:00N 33°42' W 118°08'0 0.0
2018-Jan-22 21:30N 33°42' W 118°08'0 0.1
2018-Jan-22 21:00N 33°42' W 118°08'0 0.0
2018-Jan-22 20:30N 33°42' W 118°08'0 0.0
2018-Jan-22 20:00N 33°42' W 118°08'0 0.0
2018-Jan-22 19:30N 33°42' W 118°08'0 0.0
2018-Jan-22 18:54N 33°42' W 118°08'0 0.0
2018-Jan-22 18:30N 33°42' W 118°08'0 0.0
2018-Jan-22 17:54N 33°42' W 118°08'0 0.1
2018-Jan-22 17:30N 33°42' W 118°08'0 0.0
2018-Jan-22 07:42N 33°42' W 118°08'0 0.0
2018-Jan-22 01:36N 33°42' W 118°08'0 0.0
2018-Jan-22 01:30N 33°42' W 118°08'0 0.0
2018-Jan-22 01:00N 33°42' W 118°08'0 0.0
2018-Jan-22 00:30N 33°42' W 118°08'0 0.0
2018-Jan-22 00:00N 33°42' W 118°08'0 0.0
2018-Jan-21 23:30N 33°42' W 118°08'0 0.1
2018-Jan-21 23:00N 33°42' W 118°08'0 0.1
2018-Jan-21 22:30N 33°42' W 118°08'  
2018-Jan-19 08:41N 33°42' W 118°08'0 0.0
2018-Jan-19 08:29N 33°42' W 118°08'0 0.0
2018-Jan-19 05:05N 33°42' W 118°08'0 0.0
2018-Jan-19 04:59N 33°42' W 118°08'0 0.0
2018-Jan-19 04:17N 33°42' W 118°08'0 0.1
2018-Jan-19 03:53N 33°42' W 118°08'0 0.1
2018-Jan-19 03:30N 33°42' W 118°08'0 0.0
2018-Jan-19 02:59N 33°42' W 118°08'0 0.1
2018-Jan-19 02:29N 33°42' W 118°08'0 0.2
2018-Jan-19 01:59N 33°42' W 118°08'0 0.2
2018-Jan-19 01:23N 33°42' W 118°08'0 0.1
2018-Jan-19 00:41N 33°42' W 118°08'0 0.3
2018-Jan-19 00:29N 33°42' W 118°08'1 2.7
2018-Jan-19 00:00N 33°41' W 118°09'4 7.2
2018-Jan-18 23:30N 33°37' W 118°09'510.4
2018-Jan-18 23:00N 33°32' W 118°08'611.4
2018-Jan-18 22:30N 33°27' W 118°06'611.4
2018-Jan-18 22:00N 33°21' W 118°03'611.6
2018-Jan-18 21:30N 33°16' W 118°04'611.8
2018-Jan-18 21:00N 33°10' W 118°06'612.1
2018-Jan-18 20:30N 33°04' W 118°08'612.1
2018-Jan-18 20:00N 32°58' W 118°09'612.4
2018-Jan-18 19:31N 32°52' W 118°11'612.4
2018-Jan-18 19:00N 32°46' W 118°13'612.4
2018-Jan-18 18:30N 32°40' W 118°15'611.7
2018-Jan-18 18:00N 32°37' W 118°21'611.4
2018-Jan-18 17:30N 32°34' W 118°26'611.9
2018-Jan-18 17:00N 32°28' W 118°26'611.5
2018-Jan-18 16:30N 32°22' W 118°26'3 6.4
2018-Jan-18 15:59N 32°19' W 118°26'  

Dump ship's entire track history